Air Resources Laboratory banner image
Air Resources Laboratory web site National Oceanic and Atmospheric Administration (NOAA)

oh metar


KAKR 201054Z AUTO 21010KT 10SM OVC090 17/12 A3011 RMK AO2 SLP193 T01720122=
KAOH 201053Z AUTO 20016G25KT 10SM OVC100 16/14 A3002 RMK AO2 PK WND 19026/1001
 SLP165 T01610139=
KBJJ 201056Z AUTO 21008KT 10SM OVC090 16/12 A3012 RMK AO2 SLP198 T01560117=
KBKL 201053Z 18014G25KT 10SM OVC095 18/12 A3004 RMK AO2 SLP172 T01780117=
KCAK 201051Z 21013G20KT 10SM OVC090 16/12 A3012 RMK AO2 SLP199 T01610117 $=
KCLE 201051Z 20011G20KT 10SM OVC095 17/12 A3008 RMK AO2 SLP185 T01720122=
KCMH 201051Z 20010KT 10SM OVC100 17/13 A3013 RMK AO2 SLP200 T01720133=
KDAY 201056Z 19014KT 10SM FEW100 SCT250 16/14 A3010 RMK AO2 SLP187 T01610139=
KDFI 201053Z AUTO 19008KT 10SM FEW050 BKN070 OVC090 15/13 A2998 RMK AO2
 RAB0955E23 SLP150 P0001 T01500128 $=
KFDY 201053Z AUTO 20019KT 10SM SCT070 OVC095 18/13 A3001 RMK AO2 PK WND
 20026/1025 SLP158 T01780128=
KFFO 201056Z AUTO 18013G21KT 10SM CLR 17/14 A3009 RMK AO2 SLP189 T01690136=
KHAO 201053Z AUTO VRB05KT 10SM CLR 17/13 A3011 RMK AO2 SLP192 T01720133=
KHZY 201053Z AUTO 20010KT 10SM OVC090 16/12 A3009 RMK AO2 SLP187 T01610122=
KILN 201054Z AUTO 19010KT 10SM CLR 16/13 A3013 RMK AO2 SLP202 T01560133=
KLCK 201055Z AUTO 21014G19KT 10SM OVC100 17/14 A3013 RMK AO2 T01710137=
KLHQ 201053Z AUTO 19010KT 10SM OVC095 17/12 A3016 RMK AO2 SLP208 T01720122=
KLNN 201055Z AUTO 22013G19KT 10SM OVC090 17/12 A3004 RMK AO1 T01720120=
KLPR 201053Z AUTO 21011G18KT 10SM OVC075 17/11 A3006 RMK AO2 SLP178 T01720106=
KLUK 201053Z AUTO 18010KT 10SM CLR 17/13 A3013 RMK AO2 SLP199 T01670133=
KMFD 201052Z AUTO 20021G28KT 10SM OVC095 17/13 A3009 RMK AO2 PK WND 20029/1016
 SLP188 T01670128=
KMGY 201053Z AUTO 19011KT 10SM CLR 17/12 A3010 RMK AO2 SLP188 T01670122=
KMNN 201053Z AUTO 20016G23KT 10SM OVC095 16/12 A3009 RMK AO2 PK WND 21026/1013
 SLP187 T01610122=
KOSU 201053Z AUTO 20012KT 10SM OVC100 17/14 A3011 RMK AO2 SLP194 T01720139=
KPHD 201053Z AUTO 18007KT 10SM OVC090 17/12 A3016 RMK AO2 SLP211 T01670117=
KSGH 201056Z AUTO 19011G17KT 10SM CLR 17/13 A3011 RMK AO2 SLP193 T01670128=
KTDZ 201053Z AUTO 21012KT 10SM OVC070 17/13 A3000 RMK AO2 RAB24E31 SLP157 P0001
 T01670133=
KTOL 201052Z 20011KT 10SM -RA BKN080 OVC100 16/14 A2998 RMK AO2 RAE28B46 SLP149
 P0001 T01610144 $=
KTZR 201055Z AUTO 20010G16KT 10SM OVC095 17/13 A3014 RMK AO2 T01650130=
KVTA 201054Z AUTO 20008KT 10SM OVC095 16/12 A3014 RMK AO2 SLP203 T01610117=
KYNG 201051Z 21010G16KT 10SM BKN080 OVC180 17/12 A3012 RMK AO2 SLP200 T01670117
 $=
KZZV 201053Z AUTO 18009KT 10SM OVC090 17/12 A3017 RMK AO2 SLP212 T01670117=